createdAt,value
2023-03-12T00:01:56.884Z,100.00
2023-03-12T00:04:29.969Z,100.00
2023-03-12T00:06:58.567Z,100.00
2023-03-12T00:09:29.793Z,100.00
2023-03-12T00:12:00.540Z,100.00
2023-03-12T00:14:31.087Z,100.00
2023-03-12T00:16:59.991Z,100.00
2023-03-12T00:19:29.390Z,100.00
2023-03-12T00:21:59.309Z,100.00
2023-03-12T00:24:28.154Z,100.00
2023-03-12T00:26:56.877Z,100.00
2023-03-12T00:29:26.182Z,100.00
2023-03-12T00:31:55.462Z,100.00
2023-03-12T00:34:24.880Z,100.00
2023-03-12T00:36:54.076Z,100.00
2023-03-12T00:39:23.784Z,100.00
2023-03-12T00:41:53.212Z,100.00
2023-03-12T00:44:23.601Z,100.00
2023-03-12T00:46:53.647Z,100.00
2023-03-12T00:49:23.543Z,100.00
2023-03-12T00:51:53.853Z,100.00
2023-03-12T00:54:23.604Z,100.00
2023-03-12T00:56:53.670Z,100.00
2023-03-12T00:59:23.426Z,100.00
2023-03-12T01:01:52.630Z,100.00
2023-03-12T01:04:23.545Z,100.00
2023-03-12T01:06:53.346Z,100.00
2023-03-12T01:09:23.574Z,100.00
2023-03-12T01:11:54.691Z,100.00
2023-03-12T01:14:24.669Z,100.00
2023-03-12T01:16:54.046Z,100.00
2023-03-12T01:19:23.875Z,100.00
2023-03-12T01:21:54.698Z,100.00
2023-03-12T01:24:24.038Z,100.00
2023-03-12T01:26:53.874Z,99.88
2023-03-12T01:29:22.791Z,98.64
2023-03-12T01:31:52.135Z,97.79
2023-03-12T01:34:21.117Z,97.95
2023-03-12T01:36:50.666Z,97.69
2023-03-12T01:39:19.463Z,97.61
2023-03-12T01:41:48.297Z,97.05
2023-03-12T01:44:19.074Z,96.66
2023-03-12T01:46:48.638Z,96.41
2023-03-12T01:49:29.772Z,96.39
2023-03-12T01:52:14.106Z,96.39
2023-03-12T01:55:12.583Z,96.48
2023-03-12T01:57:49.966Z,96.46
2023-03-12T02:00:24.179Z,96.07
2023-03-12T02:03:01.729Z,95.84
2023-03-12T02:05:48.045Z,95.98
2023-03-12T02:08:17.434Z,95.83
2023-03-12T02:10:49.471Z,95.82
2023-03-12T02:13:20.816Z,95.68
2023-03-12T02:15:52.078Z,95.39
2023-03-12T02:18:22.117Z,95.64
2023-03-12T02:21:25.797Z,95.95
2023-03-12T02:24:11.180Z,95.99
2023-03-12T02:26:42.475Z,96.01
2023-03-12T02:29:13.774Z,96.15
2023-03-12T02:31:50.939Z,95.80
2023-03-12T02:34:20.041Z,95.36
2023-03-12T02:36:50.379Z,95.74
2023-03-12T02:39:19.624Z,96.16
2023-03-12T02:41:54.479Z,96.31
2023-03-12T02:44:27.385Z,96.63
2023-03-12T02:46:58.968Z,96.77
2023-03-12T02:49:32.357Z,96.96
2023-03-12T02:52:02.363Z,97.09
2023-03-12T02:54:31.855Z,97.03
2023-03-12T02:57:01.229Z,97.05
2023-03-12T02:59:31.688Z,97.23
2023-03-12T03:02:01.356Z,97.33
2023-03-12T03:04:34.456Z,97.43
2023-03-12T03:07:04.391Z,97.11
2023-03-12T03:09:34.477Z,97.20
2023-03-12T03:12:04.111Z,96.91
2023-03-12T03:14:34.761Z,96.60
2023-03-12T03:17:05.410Z,96.65
2023-03-12T03:19:35.662Z,96.71
2023-03-12T03:22:08.311Z,96.80
2023-03-12T03:24:37.288Z,96.71
2023-03-12T03:27:07.079Z,96.65
2023-03-12T03:29:37.008Z,96.61
2023-03-12T03:32:08.042Z,96.08
2023-03-12T03:34:37.584Z,96.10
2023-03-12T03:37:07.404Z,95.72
2023-03-12T03:39:36.970Z,95.84
2023-03-12T03:42:07.415Z,95.81
2023-03-12T03:44:38.023Z,95.95
2023-03-12T03:47:09.515Z,96.21
2023-03-12T03:49:39.154Z,96.41
2023-03-12T03:52:09.647Z,96.52
2023-03-12T03:54:39.941Z,96.40
2023-03-12T03:57:11.014Z,96.38
2023-03-12T03:59:45.181Z,96.48
2023-03-12T04:02:19.828Z,95.81
2023-03-12T04:04:48.919Z,95.73
2023-03-12T04:07:17.621Z,95.83
2023-03-12T04:09:46.615Z,96.00
2023-03-12T04:12:17.126Z,95.78
2023-03-12T04:14:46.523Z,95.59
2023-03-12T04:17:16.053Z,95.17
2023-03-12T04:19:45.798Z,95.39
2023-03-12T04:22:17.069Z,95.52
2023-03-12T04:24:46.462Z,95.63
2023-03-12T04:27:16.582Z,95.50
2023-03-12T04:29:48.267Z,95.58
2023-03-12T04:32:17.601Z,95.86
2023-03-12T04:34:47.010Z,96.25
2023-03-12T04:37:16.375Z,96.90
2023-03-12T04:39:47.621Z,97.30
2023-03-12T04:42:16.897Z,97.39
2023-03-12T04:44:46.079Z,97.54
2023-03-12T04:47:16.789Z,97.53
2023-03-12T04:49:46.596Z,97.57
2023-03-12T04:52:17.801Z,97.31
2023-03-12T04:54:48.109Z,97.42
2023-03-12T04:57:17.530Z,97.17
2023-03-12T04:59:47.769Z,97.44
2023-03-12T05:02:18.159Z,97.62
2023-03-12T05:04:47.196Z,97.78
2023-03-12T05:07:15.951Z,97.83
2023-03-12T05:09:46.706Z,97.86
2023-03-12T05:12:17.624Z,97.78
2023-03-12T05:14:48.593Z,97.80
2023-03-12T05:17:18.317Z,97.75
2023-03-12T05:19:49.001Z,97.62
2023-03-12T05:22:19.342Z,97.67
2023-03-12T05:24:48.449Z,97.49
2023-03-12T05:27:19.169Z,97.46
2023-03-12T05:29:49.194Z,97.12
2023-03-12T05:32:22.029Z,97.10
2023-03-12T05:34:52.539Z,96.98
2023-03-12T05:37:22.002Z,96.73
2023-03-12T05:39:51.233Z,96.65
2023-03-12T05:42:20.028Z,96.48
2023-03-12T05:44:52.240Z,96.67
2023-03-12T05:47:23.098Z,96.89
2023-03-12T05:49:55.192Z,97.03
2023-03-12T05:52:25.584Z,96.96
2023-03-12T05:54:55.085Z,97.06
2023-03-12T05:57:24.301Z,96.91
2023-03-12T05:59:53.608Z,97.10
2023-03-12T06:02:23.693Z,97.15
2023-03-12T06:04:53.421Z,96.88
2023-03-12T06:07:24.684Z,96.86
2023-03-12T06:09:55.200Z,96.83
2023-03-12T06:12:26.155Z,96.81
2023-03-12T06:14:55.097Z,96.38
2023-03-12T06:17:23.862Z,96.74
2023-03-12T06:19:53.396Z,96.86
2023-03-12T06:22:23.263Z,96.89
2023-03-12T06:24:52.733Z,96.94
2023-03-12T06:27:22.667Z,96.89
2023-03-12T06:29:52.695Z,96.53
2023-03-12T06:32:21.852Z,96.64
2023-03-12T06:34:52.717Z,96.79
2023-03-12T06:37:22.887Z,96.66
2023-03-12T06:39:52.493Z,96.68
2023-03-12T06:42:22.690Z,96.77
2023-03-12T06:44:52.101Z,96.81
2023-03-12T06:47:22.115Z,96.69
2023-03-12T06:49:51.078Z,97.40
2023-03-12T06:52:22.309Z,97.53
2023-03-12T06:54:52.164Z,97.74
2023-03-12T06:57:21.638Z,97.91
2023-03-12T06:59:51.977Z,98.04
2023-03-12T07:02:21.641Z,97.91
2023-03-12T07:04:50.836Z,97.89
2023-03-12T07:07:21.477Z,99.04
2023-03-12T07:09:54.023Z,99.60
2023-03-12T07:12:23.241Z,99.42
2023-03-12T07:14:52.463Z,99.31
2023-03-12T07:17:24.366Z,100.00
2023-03-12T07:19:54.870Z,100.00
2023-03-12T07:22:23.901Z,100.00
2023-03-12T07:24:53.342Z,100.00
2023-03-12T07:27:22.358Z,100.00
2023-03-12T07:29:52.774Z,100.00
2023-03-12T07:32:22.801Z,100.00
2023-03-12T07:34:53.203Z,100.00
2023-03-12T07:37:25.367Z,100.00
2023-03-12T07:39:55.988Z,100.00
2023-03-12T07:42:26.422Z,100.00
2023-03-12T07:44:58.842Z,100.00
2023-03-12T07:47:29.161Z,100.00
2023-03-12T07:50:00.707Z,100.00
2023-03-12T07:52:30.651Z,99.65
2023-03-12T07:55:00.914Z,99.37
2023-03-12T07:57:31.713Z,98.92
2023-03-12T08:00:01.093Z,98.82
2023-03-12T08:02:34.120Z,98.51
2023-03-12T08:05:04.848Z,97.41
2023-03-12T08:07:35.429Z,96.83
2023-03-12T08:10:07.702Z,96.93
2023-03-12T08:12:39.471Z,96.44
2023-03-12T08:15:09.634Z,95.04
2023-03-12T08:17:40.489Z,94.08
2023-03-12T08:20:11.256Z,93.49
2023-03-12T08:22:41.352Z,92.20
2023-03-12T08:25:10.663Z,89.25
2023-03-12T08:27:41.608Z,88.75
2023-03-12T08:30:13.342Z,88.66
2023-03-12T08:32:43.006Z,87.37
2023-03-12T08:35:12.159Z,85.90
2023-03-12T08:37:41.487Z,84.82
2023-03-12T08:40:13.451Z,83.64
2023-03-12T08:42:44.128Z,83.31
2023-03-12T08:45:14.018Z,83.16
2023-03-12T08:47:44.508Z,82.15
2023-03-12T08:50:16.324Z,81.47
2023-03-12T08:52:47.210Z,80.58
2023-03-12T08:55:16.415Z,80.33
2023-03-12T08:57:45.913Z,80.53
2023-03-12T09:00:19.029Z,80.71
2023-03-12T09:02:51.189Z,79.98
2023-03-12T09:05:20.795Z,80.41
2023-03-12T09:07:52.338Z,78.86
2023-03-12T09:10:23.302Z,78.70
2023-03-12T09:12:53.132Z,79.53
2023-03-12T09:15:24.225Z,79.81
2023-03-12T09:17:55.747Z,79.06
2023-03-12T09:20:26.466Z,78.66
2023-03-12T09:22:56.552Z,78.29
2023-03-12T09:25:25.850Z,76.71
2023-03-12T09:27:55.841Z,75.44
2023-03-12T09:30:26.750Z,74.69
2023-03-12T09:32:56.026Z,75.40
2023-03-12T09:35:25.414Z,75.14
2023-03-12T09:37:54.919Z,77.65
2023-03-12T09:40:26.141Z,74.32
2023-03-12T09:43:14.249Z,72.23
2023-03-12T09:45:45.364Z,73.03
2023-03-12T09:48:34.926Z,73.57
2023-03-12T09:51:39.479Z,73.69
2023-03-12T09:54:16.957Z,74.29
2023-03-12T09:56:46.117Z,74.23
2023-03-12T09:59:15.220Z,73.47
2023-03-12T10:01:54.780Z,73.56
2023-03-12T10:04:59.518Z,73.76
2023-03-12T10:07:28.493Z,75.07
2023-03-12T10:10:24.794Z,75.80
2023-03-12T10:13:20.568Z,76.04
2023-03-12T10:16:17.782Z,74.23
2023-03-12T10:19:08.875Z,74.02
2023-03-12T10:22:00.158Z,74.93
2023-03-12T10:24:52.625Z,74.61
2023-03-12T10:27:21.220Z,72.77
2023-03-12T10:29:51.653Z,72.77
2023-03-12T10:32:29.733Z,72.96
2023-03-12T10:35:21.996Z,72.63
2023-03-12T10:38:01.079Z,72.90
2023-03-12T10:40:35.488Z,73.01
2023-03-12T10:43:07.009Z,72.30
2023-03-12T10:46:07.998Z,73.41
2023-03-12T10:48:38.652Z,73.27
2023-03-12T10:51:12.957Z,74.19
2023-03-12T10:53:47.781Z,73.76
2023-03-12T10:56:20.522Z,73.50
2023-03-12T10:58:51.297Z,73.26
2023-03-12T11:01:25.629Z,72.69
2023-03-12T11:04:17.558Z,72.54
2023-03-12T11:07:17.329Z,71.44
2023-03-12T11:09:46.755Z,71.65
2023-03-12T11:12:28.962Z,72.14
2023-03-12T11:14:59.634Z,72.40
2023-03-12T11:17:29.811Z,72.11
2023-03-12T11:20:00.911Z,71.39
2023-03-12T11:22:34.743Z,70.99
2023-03-12T11:25:06.198Z,71.39
2023-03-12T11:27:46.848Z,69.12
2023-03-12T11:30:18.391Z,69.94
2023-03-12T11:32:49.534Z,70.46
2023-03-12T11:35:24.255Z,70.68
2023-03-12T11:38:11.157Z,70.58
2023-03-12T11:41:16.868Z,69.76
2023-03-12T11:44:15.598Z,68.83
2023-03-12T11:47:27.747Z,68.83
2023-03-12T11:50:21.520Z,69.45
2023-03-12T11:53:26.707Z,68.83
2023-03-12T11:56:29.610Z,69.11
2023-03-12T11:59:13.398Z,68.90
2023-03-12T12:02:03.006Z,69.03
2023-03-12T12:04:43.912Z,69.36
2023-03-12T12:07:57.165Z,68.87
2023-03-12T12:10:56.795Z,68.87
2023-03-12T12:13:47.909Z,68.19
2023-03-12T12:16:25.611Z,66.35
2023-03-12T12:19:12.639Z,66.12
2023-03-12T12:22:14.491Z,65.91
2023-03-12T12:25:06.535Z,66.34
2023-03-12T12:27:50.661Z,66.07
2023-03-12T12:31:10.940Z,67.50
2023-03-12T12:34:16.914Z,67.41
2023-03-12T12:36:52.724Z,66.38
2023-03-12T12:39:36.792Z,65.43
2023-03-12T12:42:28.854Z,65.20
2023-03-12T12:44:58.329Z,65.13
2023-03-12T12:47:39.084Z,66.04
2023-03-12T12:50:20.526Z,66.09
2023-03-12T12:52:55.017Z,66.89
2023-03-12T12:55:30.895Z,65.60
2023-03-12T12:58:05.565Z,65.45
2023-03-12T13:00:53.240Z,65.75
2023-03-12T13:03:24.246Z,66.36
2023-03-12T13:06:02.844Z,66.46
2023-03-12T13:08:44.272Z,66.75
2023-03-12T13:11:38.076Z,67.02
2023-03-12T13:14:13.627Z,67.21
2023-03-12T13:16:44.865Z,67.36
2023-03-12T13:19:24.499Z,67.96
2023-03-12T13:22:17.425Z,68.11
2023-03-12T13:25:05.003Z,68.38
2023-03-12T13:27:40.360Z,68.76
2023-03-12T13:30:37.390Z,68.80
2023-03-12T13:33:08.497Z,69.06
2023-03-12T13:35:39.175Z,68.84
2023-03-12T13:38:13.083Z,68.72
2023-03-12T13:41:02.758Z,69.55
2023-03-12T13:43:44.165Z,68.84
2023-03-12T13:46:38.147Z,68.93
2023-03-12T13:49:13.164Z,69.14
2023-03-12T13:51:49.967Z,69.93
2023-03-12T13:54:19.301Z,69.65
2023-03-12T13:57:02.571Z,69.13
2023-03-12T13:59:33.328Z,68.92
2023-03-12T14:02:06.614Z,68.69
2023-03-12T14:04:39.106Z,68.77
2023-03-12T14:07:31.782Z,69.27
2023-03-12T14:10:19.280Z,69.75
2023-03-12T14:13:11.857Z,69.48
2023-03-12T14:16:01.126Z,73.69
2023-03-12T14:18:33.241Z,70.96
2023-03-12T14:21:06.111Z,69.49
2023-03-12T14:23:40.941Z,69.04
2023-03-12T14:26:18.311Z,68.82
2023-03-12T14:28:55.569Z,67.86
2023-03-12T14:31:25.322Z,67.28
2023-03-12T14:34:21.683Z,67.39
2023-03-12T14:37:23.535Z,67.03
2023-03-12T14:40:06.514Z,67.30
2023-03-12T14:42:38.366Z,67.49
2023-03-12T14:45:13.922Z,67.95
2023-03-12T14:47:45.722Z,67.81
2023-03-12T14:50:24.795Z,67.93
2023-03-12T14:52:55.206Z,68.25
2023-03-12T14:55:26.005Z,68.78
2023-03-12T14:58:20.322Z,70.26
2023-03-12T15:01:04.153Z,69.52
2023-03-12T15:03:43.358Z,69.79
2023-03-12T15:06:20.738Z,70.85
2023-03-12T15:08:49.629Z,74.62
2023-03-12T15:11:25.488Z,75.75
2023-03-12T15:13:56.523Z,77.03
2023-03-12T15:16:28.259Z,78.61
2023-03-12T15:18:57.395Z,80.09
2023-03-12T15:21:28.333Z,80.58
2023-03-12T15:23:58.688Z,80.88
2023-03-12T15:26:32.195Z,80.87
2023-03-12T15:29:27.098Z,80.41
2023-03-12T15:31:58.945Z,79.92
2023-03-12T15:34:37.488Z,78.96
2023-03-12T15:37:35.671Z,78.70
2023-03-12T15:40:10.356Z,78.71
2023-03-12T15:42:42.421Z,78.56
2023-03-12T15:45:21.803Z,78.51
2023-03-12T15:47:53.424Z,78.54
2023-03-12T15:50:33.838Z,78.66
2023-03-12T15:53:16.562Z,78.79
2023-03-12T15:56:05.439Z,78.96
2023-03-12T15:58:37.694Z,78.83
2023-03-12T16:01:10.925Z,78.80
2023-03-12T16:03:41.668Z,78.81
2023-03-12T16:06:18.691Z,78.77
2023-03-12T16:09:01.169Z,78.78
2023-03-12T16:11:33.473Z,78.49
2023-03-12T16:14:31.568Z,77.83
2023-03-12T16:17:00.928Z,77.29
2023-03-12T16:19:30.601Z,76.82
2023-03-12T16:21:59.776Z,76.21
2023-03-12T16:24:30.511Z,75.23
2023-03-12T16:26:59.697Z,74.46
2023-03-12T16:29:36.088Z,73.73
2023-03-12T16:32:15.085Z,73.34
2023-03-12T16:34:45.750Z,72.62
2023-03-12T16:37:15.585Z,72.32
2023-03-12T16:39:46.163Z,72.35
2023-03-12T16:42:19.089Z,81.66
2023-03-12T16:44:50.435Z,84.97
2023-03-12T16:47:21.163Z,85.27
2023-03-12T16:49:49.945Z,84.64
2023-03-12T16:52:26.264Z,83.97
2023-03-12T16:54:55.082Z,82.74
2023-03-12T16:57:31.671Z,79.81
2023-03-12T17:00:01.021Z,78.45
2023-03-12T17:02:30.186Z,76.53
2023-03-12T17:05:00.423Z,76.23
2023-03-12T17:07:31.052Z,75.27
2023-03-12T17:09:59.767Z,74.37
2023-03-12T17:12:36.010Z,73.87
2023-03-12T17:15:19.610Z,73.52
2023-03-12T17:17:50.147Z,73.26
2023-03-12T17:20:20.429Z,72.62
2023-03-12T17:22:50.671Z,72.42
2023-03-12T17:25:29.094Z,72.47
2023-03-12T17:27:59.363Z,72.44
2023-03-12T17:30:29.682Z,72.51
2023-03-12T17:33:12.513Z,72.84
2023-03-12T17:35:41.653Z,73.06
2023-03-12T17:38:13.535Z,73.44
2023-03-12T17:40:43.089Z,73.66
2023-03-12T17:43:11.760Z,73.77
2023-03-12T17:45:42.890Z,74.11
2023-03-12T17:48:12.083Z,74.14
2023-03-12T17:50:41.581Z,74.33
2023-03-12T17:53:10.197Z,74.49
2023-03-12T17:55:40.311Z,74.79
2023-03-12T17:58:09.076Z,75.12
2023-03-12T18:00:38.621Z,75.33
2023-03-12T18:03:09.775Z,75.68
2023-03-12T18:05:41.071Z,75.97
2023-03-12T18:08:10.453Z,76.26
2023-03-12T18:10:40.271Z,76.52
2023-03-12T18:13:08.966Z,76.68
2023-03-12T18:15:42.668Z,76.82
2023-03-12T18:18:12.020Z,77.16
2023-03-12T18:20:41.440Z,77.33
2023-03-12T18:23:10.609Z,77.48
2023-03-12T18:25:39.499Z,77.71
2023-03-12T18:28:08.785Z,77.84
2023-03-12T18:30:37.801Z,77.84
2023-03-12T18:33:07.143Z,78.02
2023-03-12T18:35:36.345Z,78.17
2023-03-12T18:38:05.945Z,78.34
2023-03-12T18:40:36.146Z,78.47
2023-03-12T18:43:05.178Z,78.62
2023-03-12T18:45:35.042Z,78.82
2023-03-12T18:48:05.884Z,78.75
2023-03-12T18:50:34.662Z,78.73
2023-03-12T18:53:04.191Z,78.74
2023-03-12T18:55:32.913Z,78.46
2023-03-12T18:58:03.055Z,78.41
2023-03-12T19:00:31.676Z,78.41
2023-03-12T19:03:02.058Z,78.30
2023-03-12T19:05:31.202Z,78.42
2023-03-12T19:08:00.121Z,78.29
2023-03-12T19:10:29.161Z,78.06
2023-03-12T19:12:59.060Z,77.74
2023-03-12T19:15:28.062Z,77.65
2023-03-12T19:17:58.382Z,77.44
2023-03-12T19:20:27.061Z,77.32
2023-03-12T19:22:57.497Z,77.20
2023-03-12T19:25:27.843Z,77.02
2023-03-12T19:27:56.881Z,76.92
2023-03-12T19:30:27.593Z,76.84
2023-03-12T19:32:57.410Z,76.90
2023-03-12T19:35:27.051Z,77.00
2023-03-12T19:37:57.619Z,76.83
2023-03-12T19:40:29.259Z,76.91
2023-03-12T19:42:58.850Z,76.97
2023-03-12T19:45:28.495Z,76.83
2023-03-12T19:47:57.411Z,76.70
2023-03-12T19:50:26.365Z,76.93
2023-03-12T19:52:56.840Z,77.09
2023-03-12T19:55:26.124Z,77.19
2023-03-12T19:57:54.905Z,77.38
2023-03-12T20:00:24.261Z,77.37
2023-03-12T20:02:52.989Z,77.31
2023-03-12T20:05:22.421Z,77.60
2023-03-12T20:07:52.322Z,77.91
2023-03-12T20:10:23.194Z,78.36
2023-03-12T20:12:54.386Z,78.76
2023-03-12T20:15:24.934Z,79.30
2023-03-12T20:17:58.951Z,79.74
2023-03-12T20:20:27.961Z,80.18
2023-03-12T20:22:57.213Z,79.91
2023-03-12T20:25:26.760Z,79.68
2023-03-12T20:27:57.762Z,78.71
2023-03-12T20:30:28.111Z,78.26
2023-03-12T20:32:57.414Z,77.49
2023-03-12T20:35:26.373Z,75.89
2023-03-12T20:37:56.771Z,74.82
2023-03-12T20:40:25.403Z,74.17
2023-03-12T20:42:55.597Z,73.70
2023-03-12T20:45:25.814Z,73.00
2023-03-12T20:47:54.356Z,72.46
2023-03-12T20:50:26.227Z,71.87
2023-03-12T20:52:55.875Z,71.66
2023-03-12T20:55:24.475Z,71.63
2023-03-12T20:57:53.215Z,71.81
2023-03-12T21:00:23.089Z,71.70
2023-03-12T21:02:52.328Z,71.93
2023-03-12T21:05:23.844Z,71.85
2023-03-12T21:07:53.609Z,71.11
2023-03-12T21:10:22.682Z,71.19
2023-03-12T21:12:53.061Z,70.92
2023-03-12T21:15:23.981Z,71.04
2023-03-12T21:17:53.265Z,70.64
2023-03-12T21:20:23.698Z,70.46
2023-03-12T21:22:53.630Z,69.87
2023-03-12T21:25:23.288Z,70.08
2023-03-12T21:27:56.599Z,70.08
2023-03-12T21:30:25.460Z,70.18
2023-03-12T21:32:55.494Z,69.69
2023-03-12T21:35:26.495Z,69.57
2023-03-12T21:37:58.768Z,69.65
2023-03-12T21:40:27.592Z,69.04
2023-03-12T21:42:56.637Z,69.02
2023-03-12T21:45:26.432Z,68.90
2023-03-12T21:47:55.185Z,68.00
2023-03-12T21:50:25.985Z,68.14
2023-03-12T21:52:55.103Z,68.12
2023-03-12T21:55:23.654Z,67.87
2023-03-12T21:57:53.061Z,67.83
2023-03-12T22:00:24.167Z,67.54
2023-03-12T22:02:54.623Z,67.51
2023-03-12T22:05:23.298Z,67.86
2023-03-12T22:07:51.892Z,68.16
2023-03-12T22:10:20.997Z,68.03
2023-03-12T22:12:49.831Z,67.69
2023-03-12T22:15:19.469Z,67.66
2023-03-12T22:17:49.814Z,67.43
2023-03-12T22:20:19.630Z,67.63
2023-03-12T22:22:50.611Z,67.51
2023-03-12T22:25:19.815Z,67.61
2023-03-12T22:27:49.363Z,67.86
2023-03-12T22:30:18.644Z,67.87
2023-03-12T22:32:47.669Z,67.73
2023-03-12T22:35:20.051Z,67.97
2023-03-12T22:37:48.949Z,68.34
2023-03-12T22:40:18.437Z,68.39
2023-03-12T22:42:55.437Z,68.77
2023-03-12T22:45:25.232Z,68.90
2023-03-12T22:47:53.966Z,69.06
2023-03-12T22:50:23.137Z,69.22
2023-03-12T22:52:52.451Z,69.41
2023-03-12T22:55:21.251Z,69.72
2023-03-12T22:57:51.451Z,69.81
2023-03-12T23:00:23.809Z,70.22
2023-03-12T23:02:52.919Z,70.42
2023-03-12T23:05:21.662Z,70.20
2023-03-12T23:07:51.214Z,70.45
2023-03-12T23:10:21.657Z,70.56
2023-03-12T23:12:51.780Z,70.52
2023-03-12T23:15:24.570Z,70.80
2023-03-12T23:17:55.910Z,71.01
2023-03-12T23:20:25.123Z,71.12
2023-03-12T23:22:55.279Z,71.19
2023-03-12T23:25:25.648Z,71.27
2023-03-12T23:27:54.839Z,71.37
2023-03-12T23:30:26.022Z,71.58
2023-03-12T23:32:55.180Z,71.58
2023-03-12T23:35:24.568Z,71.67
2023-03-12T23:37:56.189Z,71.89
2023-03-12T23:40:25.061Z,71.81
2023-03-12T23:42:54.639Z,71.86
2023-03-12T23:45:24.210Z,71.87
2023-03-12T23:47:53.490Z,71.92
2023-03-12T23:50:22.621Z,71.90
2023-03-12T23:52:51.215Z,71.93
2023-03-12T23:55:20.162Z,71.78
2023-03-12T23:57:49.252Z,71.81
